sensor_id;sensor_type;location;lat;lon;timestamp;temperature;humidity
68387;DHT22;55338;43.062;25.624;2022-12-24T00:01:12;0.80;99.90
68387;DHT22;55338;43.062;25.624;2022-12-24T00:03:38;0.80;99.90
68387;DHT22;55338;43.062;25.624;2022-12-24T00:06:06;0.80;99.90
68387;DHT22;55338;43.062;25.624;2022-12-24T00:08:32;0.70;99.90
68387;DHT22;55338;43.062;25.624;2022-12-24T00:10:57;0.70;99.90
68387;DHT22;55338;43.062;25.624;2022-12-24T00:13:23;0.70;99.90
68387;DHT22;55338;43.062;25.624;2022-12-24T00:15:49;0.40;99.90
68387;DHT22;55338;43.062;25.624;2022-12-24T00:18:15;0.60;99.90
68387;DHT22;55338;43.062;25.624;2022-12-24T00:20:41;0.60;99.90
68387;DHT22;55338;43.062;25.624;2022-12-24T00:23:09;0.60;99.90
68387;DHT22;55338;43.062;25.624;2022-12-24T00:25:35;0.60;99.90
68387;DHT22;55338;43.062;25.624;2022-12-24T00:28:00;0.60;99.90
68387;DHT22;55338;43.062;25.624;2022-12-24T00:30:26;0.50;99.90
68387;DHT22;55338;43.062;25.624;2022-12-24T00:32:52;0.60;99.90
68387;DHT22;55338;43.062;25.624;2022-12-24T00:35:18;0.60;99.90
68387;DHT22;55338;43.062;25.624;2022-12-24T00:37:46;0.50;99.90
68387;DHT22;55338;43.062;25.624;2022-12-24T00:40:13;0.50;99.90
68387;DHT22;55338;43.062;25.624;2022-12-24T00:42:38;0.50;99.90
68387;DHT22;55338;43.062;25.624;2022-12-24T00:45:05;0.40;99.90
68387;DHT22;55338;43.062;25.624;2022-12-24T00:47:30;0.50;99.90
68387;DHT22;55338;43.062;25.624;2022-12-24T00:49:56;0.50;99.90
68387;DHT22;55338;43.062;25.624;2022-12-24T00:52:23;0.50;99.90
68387;DHT22;55338;43.062;25.624;2022-12-24T00:54:49;0.60;99.90
68387;DHT22;55338;43.062;25.624;2022-12-24T00:57:14;0.60;99.90
68387;DHT22;55338;43.062;25.624;2022-12-24T00:59:40;0.60;99.90
68387;DHT22;55338;43.062;25.624;2022-12-24T01:02:06;0.60;99.90
68387;DHT22;55338;43.062;25.624;2022-12-24T01:04:32;0.60;99.90
68387;DHT22;55338;43.062;25.624;2022-12-24T01:07:16;0.60;99.90
68387;DHT22;55338;43.062;25.624;2022-12-24T01:09:42;0.60;99.90
68387;DHT22;55338;43.062;25.624;2022-12-24T01:12:08;0.60;99.90
68387;DHT22;55338;43.062;25.624;2022-12-24T01:14:33;0.60;99.90
68387;DHT22;55338;43.062;25.624;2022-12-24T01:16:59;0.60;99.90
68387;DHT22;55338;43.062;25.624;2022-12-24T01:19:25;0.60;99.90
68387;DHT22;55338;43.062;25.624;2022-12-24T01:21:50;0.60;99.90
68387;DHT22;55338;43.062;25.624;2022-12-24T01:24:17;0.60;99.90
68387;DHT22;55338;43.062;25.624;2022-12-24T01:26:43;0.60;99.90
68387;DHT22;55338;43.062;25.624;2022-12-24T01:29:09;0.60;99.90
68387;DHT22;55338;43.062;25.624;2022-12-24T01:31:34;0.60;99.90
68387;DHT22;55338;43.062;25.624;2022-12-24T01:34:00;0.60;99.90
68387;DHT22;55338;43.062;25.624;2022-12-24T01:36:26;0.60;99.90
68387;DHT22;55338;43.062;25.624;2022-12-24T01:38:52;0.70;99.90
68387;DHT22;55338;43.062;25.624;2022-12-24T01:41:19;0.70;99.90
68387;DHT22;55338;43.062;25.624;2022-12-24T01:46:43;0.70;99.90
68387;DHT22;55338;43.062;25.624;2022-12-24T01:49:11;0.70;99.90
68387;DHT22;55338;43.062;25.624;2022-12-24T01:51:51;0.80;99.90
68387;DHT22;55338;43.062;25.624;2022-12-24T01:54:30;0.70;99.90
68387;DHT22;55338;43.062;25.624;2022-12-24T01:57:06;0.70;99.90
68387;DHT22;55338;43.062;25.624;2022-12-24T01:59:35;0.70;99.90
68387;DHT22;55338;43.062;25.624;2022-12-24T02:02:02;0.60;99.90
68387;DHT22;55338;43.062;25.624;2022-12-24T02:04:43;0.60;99.90
68387;DHT22;55338;43.062;25.624;2022-12-24T02:07:11;0.60;99.90
68387;DHT22;55338;43.062;25.624;2022-12-24T02:09:38;0.60;99.90
68387;DHT22;55338;43.062;25.624;2022-12-24T02:12:04;0.60;99.90
68387;DHT22;55338;43.062;25.624;2022-12-24T02:14:31;0.70;99.90
68387;DHT22;55338;43.062;25.624;2022-12-24T02:17:19;0.70;99.90
68387;DHT22;55338;43.062;25.624;2022-12-24T02:19:56;0.70;99.90
68387;DHT22;55338;43.062;25.624;2022-12-24T02:25:22;0.70;99.90
68387;DHT22;55338;43.062;25.624;2022-12-24T02:31:01;0.70;99.90
68387;DHT22;55338;43.062;25.624;2022-12-24T02:33:39;0.70;99.90
68387;DHT22;55338;43.062;25.624;2022-12-24T02:36:15;0.60;99.90
68387;DHT22;55338;43.062;25.624;2022-12-24T02:39:26;0.60;99.90
68387;DHT22;55338;43.062;25.624;2022-12-24T02:41:34;0.50;99.90
68387;DHT22;55338;43.062;25.624;2022-12-24T02:44:22;0.60;99.90
68387;DHT22;55338;43.062;25.624;2022-12-24T02:46:49;0.60;99.90
68387;DHT22;55338;43.062;25.624;2022-12-24T02:49:15;0.60;99.90
68387;DHT22;55338;43.062;25.624;2022-12-24T02:51:41;0.60;99.90
68387;DHT22;55338;43.062;25.624;2022-12-24T02:54:07;0.60;99.90
68387;DHT22;55338;43.062;25.624;2022-12-24T03:01:56;0.60;99.90
68387;DHT22;55338;43.062;25.624;2022-12-24T03:04:51;0.60;99.90
68387;DHT22;55338;43.062;25.624;2022-12-24T03:07:22;0.60;99.90
68387;DHT22;55338;43.062;25.624;2022-12-24T03:09:53;0.50;99.90
68387;DHT22;55338;43.062;25.624;2022-12-24T03:12:27;0.80;99.90
68387;DHT22;55338;43.062;25.624;2022-12-24T03:14:54;0.60;99.90
68387;DHT22;55338;43.062;25.624;2022-12-24T03:17:20;0.60;99.90
68387;DHT22;55338;43.062;25.624;2022-12-24T03:19:46;0.60;99.90
68387;DHT22;55338;43.062;25.624;2022-12-24T03:22:12;0.60;99.90
68387;DHT22;55338;43.062;25.624;2022-12-24T03:24:38;0.60;99.90
68387;DHT22;55338;43.062;25.624;2022-12-24T03:27:05;0.50;99.90
68387;DHT22;55338;43.062;25.624;2022-12-24T03:29:33;0.50;99.90
68387;DHT22;55338;43.062;25.624;2022-12-24T03:32:02;0.60;99.90
68387;DHT22;55338;43.062;25.624;2022-12-24T03:34:28;0.60;99.90
68387;DHT22;55338;43.062;25.624;2022-12-24T03:36:53;0.60;99.90
68387;DHT22;55338;43.062;25.624;2022-12-24T03:39:19;0.60;99.90
68387;DHT22;55338;43.062;25.624;2022-12-24T03:41:45;0.60;99.90
68387;DHT22;55338;43.062;25.624;2022-12-24T03:44:11;0.60;99.90
68387;DHT22;55338;43.062;25.624;2022-12-24T03:46:36;0.70;99.90
68387;DHT22;55338;43.062;25.624;2022-12-24T03:49:02;0.70;99.90
68387;DHT22;55338;43.062;25.624;2022-12-24T03:51:28;1.30;99.90
68387;DHT22;55338;43.062;25.624;2022-12-24T03:53:55;0.60;99.90
68387;DHT22;55338;43.062;25.624;2022-12-24T03:56:22;0.60;99.90
68387;DHT22;55338;43.062;25.624;2022-12-24T03:58:48;0.50;99.90
68387;DHT22;55338;43.062;25.624;2022-12-24T04:01:14;0.50;99.90
68387;DHT22;55338;43.062;25.624;2022-12-24T04:03:41;0.60;99.90
68387;DHT22;55338;43.062;25.624;2022-12-24T04:06:10;0.60;99.90
68387;DHT22;55338;43.062;25.624;2022-12-24T04:08:35;0.60;99.90
68387;DHT22;55338;43.062;25.624;2022-12-24T04:11:04;0.60;99.90
68387;DHT22;55338;43.062;25.624;2022-12-24T04:13:30;0.60;99.90
68387;DHT22;55338;43.062;25.624;2022-12-24T04:16:00;0.60;99.90
68387;DHT22;55338;43.062;25.624;2022-12-24T04:18:26;0.60;99.90
68387;DHT22;55338;43.062;25.624;2022-12-24T04:20:52;0.60;99.90
68387;DHT22;55338;43.062;25.624;2022-12-24T04:23:18;0.70;99.90
68387;DHT22;55338;43.062;25.624;2022-12-24T04:25:44;0.70;99.90
68387;DHT22;55338;43.062;25.624;2022-12-24T04:28:10;0.70;99.90
68387;DHT22;55338;43.062;25.624;2022-12-24T04:30:37;0.70;99.90
68387;DHT22;55338;43.062;25.624;2022-12-24T04:33:03;0.70;99.90
68387;DHT22;55338;43.062;25.624;2022-12-24T04:35:29;0.70;99.90
68387;DHT22;55338;43.062;25.624;2022-12-24T04:37:54;0.60;99.90
68387;DHT22;55338;43.062;25.624;2022-12-24T04:40:20;0.70;99.90
68387;DHT22;55338;43.062;25.624;2022-12-24T04:42:46;0.70;99.90
68387;DHT22;55338;43.062;25.624;2022-12-24T04:45:12;0.70;99.90
68387;DHT22;55338;43.062;25.624;2022-12-24T04:47:37;0.70;99.90
68387;DHT22;55338;43.062;25.624;2022-12-24T04:50:03;0.70;99.90
68387;DHT22;55338;43.062;25.624;2022-12-24T04:52:29;0.60;99.90
68387;DHT22;55338;43.062;25.624;2022-12-24T04:54:55;0.60;99.90
68387;DHT22;55338;43.062;25.624;2022-12-24T04:57:21;0.60;99.90
68387;DHT22;55338;43.062;25.624;2022-12-24T04:59:46;0.50;99.90
68387;DHT22;55338;43.062;25.624;2022-12-24T05:02:12;0.50;99.90
68387;DHT22;55338;43.062;25.624;2022-12-24T05:04:38;0.50;99.90
68387;DHT22;55338;43.062;25.624;2022-12-24T05:07:03;0.40;99.90
68387;DHT22;55338;43.062;25.624;2022-12-24T05:09:29;0.50;99.90
68387;DHT22;55338;43.062;25.624;2022-12-24T05:11:55;0.50;99.90
68387;DHT22;55338;43.062;25.624;2022-12-24T05:14:21;0.50;99.90
68387;DHT22;55338;43.062;25.624;2022-12-24T05:16:47;0.50;99.90
68387;DHT22;55338;43.062;25.624;2022-12-24T05:19:12;0.50;99.90
68387;DHT22;55338;43.062;25.624;2022-12-24T05:21:38;0.50;99.90
68387;DHT22;55338;43.062;25.624;2022-12-24T05:24:04;0.50;99.90
68387;DHT22;55338;43.062;25.624;2022-12-24T05:26:50;0.50;99.90
68387;DHT22;55338;43.062;25.624;2022-12-24T05:29:17;0.40;99.90
68387;DHT22;55338;43.062;25.624;2022-12-24T05:31:44;0.40;99.90
68387;DHT22;55338;43.062;25.624;2022-12-24T05:34:12;0.40;99.90
68387;DHT22;55338;43.062;25.624;2022-12-24T05:36:38;0.40;99.90
68387;DHT22;55338;43.062;25.624;2022-12-24T05:39:04;0.40;99.90
68387;DHT22;55338;43.062;25.624;2022-12-24T05:41:31;0.40;99.90
68387;DHT22;55338;43.062;25.624;2022-12-24T05:43:57;0.40;99.90
68387;DHT22;55338;43.062;25.624;2022-12-24T05:46:23;0.40;99.90
68387;DHT22;55338;43.062;25.624;2022-12-24T05:48:50;0.40;99.90
68387;DHT22;55338;43.062;25.624;2022-12-24T05:51:18;0.30;99.90
68387;DHT22;55338;43.062;25.624;2022-12-24T05:53:45;0.30;99.90
68387;DHT22;55338;43.062;25.624;2022-12-24T05:56:15;0.20;99.90
68387;DHT22;55338;43.062;25.624;2022-12-24T05:58:41;0.20;99.90
68387;DHT22;55338;43.062;25.624;2022-12-24T06:01:08;0.20;99.90
68387;DHT22;55338;43.062;25.624;2022-12-24T06:03:34;0.20;99.90
68387;DHT22;55338;43.062;25.624;2022-12-24T06:06:12;0.10;99.90
68387;DHT22;55338;43.062;25.624;2022-12-24T06:08:38;0.00;99.90
68387;DHT22;55338;43.062;25.624;2022-12-24T06:11:07;0.10;99.90
68387;DHT22;55338;43.062;25.624;2022-12-24T06:13:33;0.10;99.90
68387;DHT22;55338;43.062;25.624;2022-12-24T06:16:01;0.10;99.90
68387;DHT22;55338;43.062;25.624;2022-12-24T06:18:31;0.10;99.90
68387;DHT22;55338;43.062;25.624;2022-12-24T06:20:58;0.10;99.90
68387;DHT22;55338;43.062;25.624;2022-12-24T06:23:24;0.10;99.90
68387;DHT22;55338;43.062;25.624;2022-12-24T06:25:51;0.10;99.90
68387;DHT22;55338;43.062;25.624;2022-12-24T06:28:17;0.10;99.90
68387;DHT22;55338;43.062;25.624;2022-12-24T06:30:47;0.20;99.90
68387;DHT22;55338;43.062;25.624;2022-12-24T06:33:13;0.40;99.90
68387;DHT22;55338;43.062;25.624;2022-12-24T06:35:39;0.50;99.90
68387;DHT22;55338;43.062;25.624;2022-12-24T06:38:04;0.60;99.90
68387;DHT22;55338;43.062;25.624;2022-12-24T06:40:30;0.60;99.90
68387;DHT22;55338;43.062;25.624;2022-12-24T06:42:56;0.70;99.90
68387;DHT22;55338;43.062;25.624;2022-12-24T06:45:22;0.80;99.90
68387;DHT22;55338;43.062;25.624;2022-12-24T06:47:48;1.00;99.90
68387;DHT22;55338;43.062;25.624;2022-12-24T06:50:14;1.10;99.90
68387;DHT22;55338;43.062;25.624;2022-12-24T06:52:40;1.20;99.90
68387;DHT22;55338;43.062;25.624;2022-12-24T06:55:06;1.40;99.90
68387;DHT22;55338;43.062;25.624;2022-12-24T06:57:32;1.60;99.90
68387;DHT22;55338;43.062;25.624;2022-12-24T06:59:58;2.00;99.90
68387;DHT22;55338;43.062;25.624;2022-12-24T07:02:24;2.50;99.90
68387;DHT22;55338;43.062;25.624;2022-12-24T07:04:50;2.80;99.90
68387;DHT22;55338;43.062;25.624;2022-12-24T07:07:16;3.00;99.90
68387;DHT22;55338;43.062;25.624;2022-12-24T07:09:41;3.40;99.90
68387;DHT22;55338;43.062;25.624;2022-12-24T07:12:07;3.80;99.90
68387;DHT22;55338;43.062;25.624;2022-12-24T07:14:33;4.00;99.90
68387;DHT22;55338;43.062;25.624;2022-12-24T07:16:59;4.10;99.90
68387;DHT22;55338;43.062;25.624;2022-12-24T07:19:25;4.30;99.90
68387;DHT22;55338;43.062;25.624;2022-12-24T07:21:50;4.50;99.90
68387;DHT22;55338;43.062;25.624;2022-12-24T07:24:16;4.80;99.90
68387;DHT22;55338;43.062;25.624;2022-12-24T07:26:42;5.30;99.90
68387;DHT22;55338;43.062;25.624;2022-12-24T07:29:07;5.80;99.90
68387;DHT22;55338;43.062;25.624;2022-12-24T07:31:33;5.90;99.90
68387;DHT22;55338;43.062;25.624;2022-12-24T07:33:59;6.00;99.90
68387;DHT22;55338;43.062;25.624;2022-12-24T07:36:25;6.00;99.90
68387;DHT22;55338;43.062;25.624;2022-12-24T07:38:52;5.80;99.90
68387;DHT22;55338;43.062;25.624;2022-12-24T07:41:18;5.70;99.90
68387;DHT22;55338;43.062;25.624;2022-12-24T07:43:44;5.80;99.90
68387;DHT22;55338;43.062;25.624;2022-12-24T07:46:10;6.10;99.90
68387;DHT22;55338;43.062;25.624;2022-12-24T07:48:36;6.30;99.90
68387;DHT22;55338;43.062;25.624;2022-12-24T07:51:01;6.30;99.90
68387;DHT22;55338;43.062;25.624;2022-12-24T07:53:28;6.20;99.90
68387;DHT22;55338;43.062;25.624;2022-12-24T07:55:54;6.40;99.90
68387;DHT22;55338;43.062;25.624;2022-12-24T07:58:21;7.00;99.90
68387;DHT22;55338;43.062;25.624;2022-12-24T08:00:47;7.40;98.10
68387;DHT22;55338;43.062;25.624;2022-12-24T08:03:18;7.60;96.80
68387;DHT22;55338;43.062;25.624;2022-12-24T08:05:44;7.50;95.60
68387;DHT22;55338;43.062;25.624;2022-12-24T08:08:10;7.30;96.10
68387;DHT22;55338;43.062;25.624;2022-12-24T08:10:40;7.10;95.80
68387;DHT22;55338;43.062;25.624;2022-12-24T08:13:07;6.90;96.90
68387;DHT22;55338;43.062;25.624;2022-12-24T08:15:33;6.60;98.40
68387;DHT22;55338;43.062;25.624;2022-12-24T08:17:58;6.40;99.40
68387;DHT22;55338;43.062;25.624;2022-12-24T08:20:24;6.40;99.90
68387;DHT22;55338;43.062;25.624;2022-12-24T08:22:50;6.70;99.90
68387;DHT22;55338;43.062;25.624;2022-12-24T08:25:17;6.90;99.90
68387;DHT22;55338;43.062;25.624;2022-12-24T08:27:42;6.90;99.90
68387;DHT22;55338;43.062;25.624;2022-12-24T08:30:09;6.90;99.90
68387;DHT22;55338;43.062;25.624;2022-12-24T08:32:34;7.20;99.90
68387;DHT22;55338;43.062;25.624;2022-12-24T08:35:00;7.40;99.90
68387;DHT22;55338;43.062;25.624;2022-12-24T08:37:26;7.30;99.90
68387;DHT22;55338;43.062;25.624;2022-12-24T08:39:52;7.00;99.90
68387;DHT22;55338;43.062;25.624;2022-12-24T08:42:17;6.50;99.90
68387;DHT22;55338;43.062;25.624;2022-12-24T08:44:44;6.70;99.90
68387;DHT22;55338;43.062;25.624;2022-12-24T08:47:09;6.80;99.90
68387;DHT22;55338;43.062;25.624;2022-12-24T08:49:35;6.90;99.90
68387;DHT22;55338;43.062;25.624;2022-12-24T08:52:01;7.20;99.90
68387;DHT22;55338;43.062;25.624;2022-12-24T08:54:27;8.00;99.90
68387;DHT22;55338;43.062;25.624;2022-12-24T08:56:52;8.30;99.00
68387;DHT22;55338;43.062;25.624;2022-12-24T08:59:18;8.50;98.30
68387;DHT22;55338;43.062;25.624;2022-12-24T09:01:44;8.70;98.30
68387;DHT22;55338;43.062;25.624;2022-12-24T09:04:09;8.60;98.70
68387;DHT22;55338;43.062;25.624;2022-12-24T09:06:35;8.60;99.60
68387;DHT22;55338;43.062;25.624;2022-12-24T09:09:03;8.40;99.90
68387;DHT22;55338;43.062;25.624;2022-12-24T09:11:29;8.40;99.90
68387;DHT22;55338;43.062;25.624;2022-12-24T09:13:55;8.50;99.90
68387;DHT22;55338;43.062;25.624;2022-12-24T09:16:20;8.60;99.90
68387;DHT22;55338;43.062;25.624;2022-12-24T09:18:46;8.70;99.90
68387;DHT22;55338;43.062;25.624;2022-12-24T09:21:14;8.80;99.90
68387;DHT22;55338;43.062;25.624;2022-12-24T09:23:42;8.80;99.90
68387;DHT22;55338;43.062;25.624;2022-12-24T09:26:11;8.90;99.90
68387;DHT22;55338;43.062;25.624;2022-12-24T09:28:38;8.90;99.90
68387;DHT22;55338;43.062;25.624;2022-12-24T09:31:04;8.90;99.90
68387;DHT22;55338;43.062;25.624;2022-12-24T09:33:33;8.80;99.90
68387;DHT22;55338;43.062;25.624;2022-12-24T09:36:00;8.80;99.90
68387;DHT22;55338;43.062;25.624;2022-12-24T09:38:26;8.60;99.90
68387;DHT22;55338;43.062;25.624;2022-12-24T09:40:53;8.40;99.90
68387;DHT22;55338;43.062;25.624;2022-12-24T09:43:20;8.30;99.90
68387;DHT22;55338;43.062;25.624;2022-12-24T09:48:33;8.30;99.90
68387;DHT22;55338;43.062;25.624;2022-12-24T09:51:09;8.20;99.90
68387;DHT22;55338;43.062;25.624;2022-12-24T09:53:42;8.20;99.90
68387;DHT22;55338;43.062;25.624;2022-12-24T09:56:23;8.20;99.90
68387;DHT22;55338;43.062;25.624;2022-12-24T09:58:58;8.20;99.90
68387;DHT22;55338;43.062;25.624;2022-12-24T10:01:24;8.30;99.90
68387;DHT22;55338;43.062;25.624;2022-12-24T10:03:53;8.40;99.90
68387;DHT22;55338;43.062;25.624;2022-12-24T10:06:21;8.50;99.90
68387;DHT22;55338;43.062;25.624;2022-12-24T10:16:24;8.70;99.90
68387;DHT22;55338;43.062;25.624;2022-12-24T10:19:17;8.60;99.90
68387;DHT22;55338;43.062;25.624;2022-12-24T10:24:27;8.70;99.90
68387;DHT22;55338;43.062;25.624;2022-12-24T10:27:18;8.70;99.90
68387;DHT22;55338;43.062;25.624;2022-12-24T10:29:48;8.70;99.90
68387;DHT22;55338;43.062;25.624;2022-12-24T10:32:20;8.80;99.90
68387;DHT22;55338;43.062;25.624;2022-12-24T10:37:33;8.90;99.90
68387;DHT22;55338;43.062;25.624;2022-12-24T10:39:59;8.90;99.90
68387;DHT22;55338;43.062;25.624;2022-12-24T10:42:37;9.00;99.90
68387;DHT22;55338;43.062;25.624;2022-12-24T10:45:06;9.00;99.90
68387;DHT22;55338;43.062;25.624;2022-12-24T10:47:38;9.10;99.90
68387;DHT22;55338;43.062;25.624;2022-12-24T10:50:12;9.10;99.90
68387;DHT22;55338;43.062;25.624;2022-12-24T10:52:41;9.10;99.90
68387;DHT22;55338;43.062;25.624;2022-12-24T10:57:59;9.10;99.90
68387;DHT22;55338;43.062;25.624;2022-12-24T11:00:26;9.20;99.90
68387;DHT22;55338;43.062;25.624;2022-12-24T11:03:28;9.20;99.90
68387;DHT22;55338;43.062;25.624;2022-12-24T11:08:34;9.40;99.90
68387;DHT22;55338;43.062;25.624;2022-12-24T11:11:15;9.30;99.90
68387;DHT22;55338;43.062;25.624;2022-12-24T11:18:48;9.30;99.90
68387;DHT22;55338;43.062;25.624;2022-12-24T11:21:27;9.30;99.90
68387;DHT22;55338;43.062;25.624;2022-12-24T11:26:43;9.30;99.90
68387;DHT22;55338;43.062;25.624;2022-12-24T11:29:18;9.30;99.90
68387;DHT22;55338;43.062;25.624;2022-12-24T11:31:45;9.30;99.90
68387;DHT22;55338;43.062;25.624;2022-12-24T11:36:50;9.40;99.90
68387;DHT22;55338;43.062;25.624;2022-12-24T11:39:21;9.50;99.90
68387;DHT22;55338;43.062;25.624;2022-12-24T11:41:48;9.50;99.90
68387;DHT22;55338;43.062;25.624;2022-12-24T11:44:24;9.70;99.90
68387;DHT22;55338;43.062;25.624;2022-12-24T11:46:50;9.70;99.90
68387;DHT22;55338;43.062;25.624;2022-12-24T11:49:26;9.90;99.90
68387;DHT22;55338;43.062;25.624;2022-12-24T11:57:51;11.70;99.90
68387;DHT22;55338;43.062;25.624;2022-12-24T12:00:18;12.20;97.10
68387;DHT22;55338;43.062;25.624;2022-12-24T12:02:47;12.40;96.00
68387;DHT22;55338;43.062;25.624;2022-12-24T12:05:21;12.30;95.60
68387;DHT22;55338;43.062;25.624;2022-12-24T12:07:54;12.20;95.40
68387;DHT22;55338;43.062;25.624;2022-12-24T12:10:24;12.10;96.30
68387;DHT22;55338;43.062;25.624;2022-12-24T12:13:02;11.90;97.70
68387;DHT22;55338;43.062;25.624;2022-12-24T12:15:45;11.80;98.80
68387;DHT22;55338;43.062;25.624;2022-12-24T12:18:15;11.70;99.50
68387;DHT22;55338;43.062;25.624;2022-12-24T12:21:01;11.60;98.50
68387;DHT22;55338;43.062;25.624;2022-12-24T12:23:37;11.50;98.20
68387;DHT22;55338;43.062;25.624;2022-12-24T12:26:24;11.40;99.40
68387;DHT22;55338;43.062;25.624;2022-12-24T12:31:41;11.50;99.90
68387;DHT22;55338;43.062;25.624;2022-12-24T12:36:48;11.20;99.90
68387;DHT22;55338;43.062;25.624;2022-12-24T12:39:15;11.10;99.90
68387;DHT22;55338;43.062;25.624;2022-12-24T12:58:07;10.80;99.90
68387;DHT22;55338;43.062;25.624;2022-12-24T13:00:37;10.80;99.90
68387;DHT22;55338;43.062;25.624;2022-12-24T13:14:22;10.80;99.90
68387;DHT22;55338;43.062;25.624;2022-12-24T13:22:16;10.60;99.90
68387;DHT22;55338;43.062;25.624;2022-12-24T13:24:51;10.60;99.90
68387;DHT22;55338;43.062;25.624;2022-12-24T13:27:25;10.50;99.90
68387;DHT22;55338;43.062;25.624;2022-12-24T13:32:46;10.40;99.90
68387;DHT22;55338;43.062;25.624;2022-12-24T13:37:44;10.20;99.90
68387;DHT22;55338;43.062;25.624;2022-12-24T13:45:40;10.00;99.90
68387;DHT22;55338;43.062;25.624;2022-12-24T13:53:29;9.80;99.90
68387;DHT22;55338;43.062;25.624;2022-12-24T13:56:24;9.80;99.90
68387;DHT22;55338;43.062;25.624;2022-12-24T13:59:33;9.70;99.90
68387;DHT22;55338;43.062;25.624;2022-12-24T14:02:01;9.60;99.90
68387;DHT22;55338;43.062;25.624;2022-12-24T14:04:30;9.50;99.90
68387;DHT22;55338;43.062;25.624;2022-12-24T14:06:59;9.40;99.90
68387;DHT22;55338;43.062;25.624;2022-12-24T14:09:27;9.40;99.90
68387;DHT22;55338;43.062;25.624;2022-12-24T14:14:31;9.20;99.90
68387;DHT22;55338;43.062;25.624;2022-12-24T14:17:01;9.20;99.90
68387;DHT22;55338;43.062;25.624;2022-12-24T14:19:43;9.20;99.90
68387;DHT22;55338;43.062;25.624;2022-12-24T14:24:48;9.10;99.90
68387;DHT22;55338;43.062;25.624;2022-12-24T14:27:31;9.10;99.90
68387;DHT22;55338;43.062;25.624;2022-12-24T14:32:35;9.00;99.90
68387;DHT22;55338;43.062;25.624;2022-12-24T14:37:44;8.90;99.90
68387;DHT22;55338;43.062;25.624;2022-12-24T14:40:25;8.90;99.90
68387;DHT22;55338;43.062;25.624;2022-12-24T14:48:43;8.70;99.90
68387;DHT22;55338;43.062;25.624;2022-12-24T14:54:06;8.50;99.90
68387;DHT22;55338;43.062;25.624;2022-12-24T14:56:35;8.40;99.90
68387;DHT22;55338;43.062;25.624;2022-12-24T14:59:13;8.40;99.90
68387;DHT22;55338;43.062;25.624;2022-12-24T15:01:40;8.30;99.90
68387;DHT22;55338;43.062;25.624;2022-12-24T15:06:43;8.20;99.90
68387;DHT22;55338;43.062;25.624;2022-12-24T15:09:23;8.10;99.90
68387;DHT22;55338;43.062;25.624;2022-12-24T15:11:53;8.10;99.90
68387;DHT22;55338;43.062;25.624;2022-12-24T15:14:20;8.10;99.90
68387;DHT22;55338;43.062;25.624;2022-12-24T15:21:53;8.00;99.90
68387;DHT22;55338;43.062;25.624;2022-12-24T15:24:32;8.00;99.90
68387;DHT22;55338;43.062;25.624;2022-12-24T15:27:00;7.90;99.90
68387;DHT22;55338;43.062;25.624;2022-12-24T15:29:29;7.90;99.90
68387;DHT22;55338;43.062;25.624;2022-12-24T15:31:59;7.90;99.90
68387;DHT22;55338;43.062;25.624;2022-12-24T15:34:29;7.80;99.90
68387;DHT22;55338;43.062;25.624;2022-12-24T15:37:13;7.80;99.90
68387;DHT22;55338;43.062;25.624;2022-12-24T15:39:41;7.80;99.90
68387;DHT22;55338;43.062;25.624;2022-12-24T15:42:07;7.80;99.90
68387;DHT22;55338;43.062;25.624;2022-12-24T15:47:30;7.80;99.90
68387;DHT22;55338;43.062;25.624;2022-12-24T15:50:17;7.80;99.90
68387;DHT22;55338;43.062;25.624;2022-12-24T15:52:45;7.80;99.90
68387;DHT22;55338;43.062;25.624;2022-12-24T15:57:58;7.80;99.90
68387;DHT22;55338;43.062;25.624;2022-12-24T16:00:26;7.80;99.90
68387;DHT22;55338;43.062;25.624;2022-12-24T16:03:18;7.80;99.90
68387;DHT22;55338;43.062;25.624;2022-12-24T16:05:45;7.70;99.90
68387;DHT22;55338;43.062;25.624;2022-12-24T16:10:43;7.80;99.90
68387;DHT22;55338;43.062;25.624;2022-12-24T16:13:17;7.80;99.90
68387;DHT22;55338;43.062;25.624;2022-12-24T16:15:53;7.70;99.90
68387;DHT22;55338;43.062;25.624;2022-12-24T16:18:52;7.60;99.90
68387;DHT22;55338;43.062;25.624;2022-12-24T16:21:25;7.50;99.90
68387;DHT22;55338;43.062;25.624;2022-12-24T16:23:54;7.60;99.90
68387;DHT22;55338;43.062;25.624;2022-12-24T16:26:21;7.50;99.90
68387;DHT22;55338;43.062;25.624;2022-12-24T16:28:47;7.50;99.90
68387;DHT22;55338;43.062;25.624;2022-12-24T16:31:28;7.50;99.90
68387;DHT22;55338;43.062;25.624;2022-12-24T16:33:57;7.50;99.90
68387;DHT22;55338;43.062;25.624;2022-12-24T16:36:23;7.50;99.90
68387;DHT22;55338;43.062;25.624;2022-12-24T16:38:49;7.30;99.90
68387;DHT22;55338;43.062;25.624;2022-12-24T16:41:33;7.50;99.90
68387;DHT22;55338;43.062;25.624;2022-12-24T16:44:19;7.50;99.90
68387;DHT22;55338;43.062;25.624;2022-12-24T16:46:45;7.40;99.90
68387;DHT22;55338;43.062;25.624;2022-12-24T16:49:18;7.40;99.90
68387;DHT22;55338;43.062;25.624;2022-12-24T16:51:45;7.40;99.90
68387;DHT22;55338;43.062;25.624;2022-12-24T16:54:12;7.30;99.90
68387;DHT22;55338;43.062;25.624;2022-12-24T16:56:42;7.30;99.90
68387;DHT22;55338;43.062;25.624;2022-12-24T16:59:19;7.30;99.90
68387;DHT22;55338;43.062;25.624;2022-12-24T17:01:47;7.30;99.90
68387;DHT22;55338;43.062;25.624;2022-12-24T17:04:13;7.30;99.90
68387;DHT22;55338;43.062;25.624;2022-12-24T17:06:40;7.40;99.90
68387;DHT22;55338;43.062;25.624;2022-12-24T17:09:08;7.40;99.90
68387;DHT22;55338;43.062;25.624;2022-12-24T17:11:34;7.40;99.90
68387;DHT22;55338;43.062;25.624;2022-12-24T17:14:01;7.40;99.90
68387;DHT22;55338;43.062;25.624;2022-12-24T17:16:27;7.40;99.90
68387;DHT22;55338;43.062;25.624;2022-12-24T17:18:53;7.50;99.90
68387;DHT22;55338;43.062;25.624;2022-12-24T17:21:19;7.50;99.90
68387;DHT22;55338;43.062;25.624;2022-12-24T17:23:45;7.50;99.90
68387;DHT22;55338;43.062;25.624;2022-12-24T17:26:11;7.50;99.90
68387;DHT22;55338;43.062;25.624;2022-12-24T17:28:37;7.50;99.90
68387;DHT22;55338;43.062;25.624;2022-12-24T17:31:14;7.50;99.90
68387;DHT22;55338;43.062;25.624;2022-12-24T17:33:43;7.50;99.90
68387;DHT22;55338;43.062;25.624;2022-12-24T17:36:09;7.50;99.90
68387;DHT22;55338;43.062;25.624;2022-12-24T17:38:36;7.50;99.90
68387;DHT22;55338;43.062;25.624;2022-12-24T17:41:06;7.60;99.90
68387;DHT22;55338;43.062;25.624;2022-12-24T17:43:33;7.70;99.90
68387;DHT22;55338;43.062;25.624;2022-12-24T17:46:03;7.80;99.90
68387;DHT22;55338;43.062;25.624;2022-12-24T17:48:29;7.90;99.90
68387;DHT22;55338;43.062;25.624;2022-12-24T17:50:55;7.90;99.90
68387;DHT22;55338;43.062;25.624;2022-12-24T17:53:21;7.90;99.90
68387;DHT22;55338;43.062;25.624;2022-12-24T17:55:46;7.90;99.90
68387;DHT22;55338;43.062;25.624;2022-12-24T17:58:12;8.00;99.90
68387;DHT22;55338;43.062;25.624;2022-12-24T18:00:40;8.00;99.90
68387;DHT22;55338;43.062;25.624;2022-12-24T18:03:06;8.00;99.90